PWSweather.com
Personal Weather Stations
Station Observations
IPORTUGA89
BarosaPT

BarosaPT

Lat: 39.754028, Lon: -8.843

Elevation: 98

Station Type: Davis Vp2

High Low Average
Temperature 56.5°F13.6°C 36.9°F2.7°C 47.3°F8.5°C
Dew Point 49.6°F9.8°C 35.1°F1.7°C 41.0°F5.0°C
Winds 11.0 mph 17.7 kmh Calm Calm 2.0 mph WNW3.2 kmh WNW
Wind Gusts 17.9 mph28.8 kmh -- 5.0 mph8.0 kmh
Humidity 95% 48% 81%
Pressure 30.36 in1028.1 mb 30.27 in1025.1 mb -
Precipitation 0.02 in0.5 mm - -
Hour Temp Dew Point Humidity Winds Wind Gusts Pressure Precip Precip Rate Daily Precip Total
12:06 AM 51.6°F10.9°C 49.6°F9.8°C 93% Calm Calm -- 30.29 in1025.7 mb 0.00 in0.0 mm 0.00 in0.0 mm 0.00 in0.0 mm
12:16 AM 51.4°F10.8°C 49.5°F9.7°C 93% Calm Calm -- 30.29 in1025.7 mb 0.00 in0.0 mm 0.00 in0.0 mm 0.00 in0.0 mm
12:26 AM 51.3°F10.7°C 49.3°F9.6°C 93% Calm Calm -- 30.29 in1025.7 mb 0.00 in0.0 mm 0.00 in0.0 mm 0.00 in0.0 mm
12:36 AM 51.3°F10.7°C 49.3°F9.6°C 93% Calm Calm 4.0 mph6.4 kmh 30.29 in1025.7 mb 0.00 in0.0 mm 0.00 in0.0 mm 0.00 in0.0 mm
12:46 AM 51.1°F10.6°C 49.1°F9.5°C 93% Calm Calm -- 30.29 in1025.7 mb 0.00 in0.0 mm 0.00 in0.0 mm 0.00 in0.0 mm
12:56 AM 50.9°F10.5°C 48.9°F9.4°C 93% Calm Calm -- 30.29 in1025.7 mb 0.01 in0.3 mm 0.06 in1.5 mm 0.01 in0.3 mm
01:07 AM 50.7°F10.4°C 48.7°F9.3°C 93% Calm Calm -- 30.29 in1025.7 mb 0.01 in0.3 mm 0.00 in0.0 mm 0.01 in0.3 mm
01:17 AM 50.5°F10.3°C 48.9°F9.4°C 94% Calm Calm -- 30.28 in1025.4 mb 0.01 in0.3 mm 0.00 in0.0 mm 0.01 in0.3 mm
01:27 AM 50.5°F10.3°C 48.9°F9.4°C 94% Calm Calm -- 30.28 in1025.4 mb 0.01 in0.3 mm 0.00 in0.0 mm 0.01 in0.3 mm
01:37 AM 50.5°F10.3°C 48.9°F9.4°C 94% Calm Calm -- 30.28 in1025.4 mb 0.01 in0.3 mm 0.00 in0.0 mm 0.01 in0.3 mm
01:47 AM 50.5°F10.3°C 48.9°F9.4°C 94% Calm Calm -- 30.28 in1025.4 mb 0.01 in0.3 mm 0.00 in0.0 mm 0.01 in0.3 mm
01:57 AM 50.5°F10.3°C 48.9°F9.4°C 94% Calm Calm -- 30.28 in1025.4 mb 0.00 in0.0 mm 0.00 in0.0 mm 0.01 in0.3 mm
02:08 AM 50.5°F10.3°C 48.9°F9.4°C 94% Calm Calm -- 30.28 in1025.4 mb 0.00 in0.0 mm 0.00 in0.0 mm 0.01 in0.3 mm
02:18 AM 50.4°F10.2°C 48.7°F9.3°C 94% Calm Calm -- 30.28 in1025.4 mb 0.00 in0.0 mm 0.00 in0.0 mm 0.01 in0.3 mm
02:28 AM 50.5°F10.3°C 48.9°F9.4°C 94% Calm Calm -- 30.28 in1025.4 mb 0.00 in0.0 mm 0.00 in0.0 mm 0.01 in0.3 mm
02:38 AM 50.4°F10.2°C 48.7°F9.3°C 94% Calm Calm 4.9 mph7.9 kmh 30.27 in1025.1 mb 0.00 in0.0 mm 0.00 in0.0 mm 0.01 in0.3 mm
02:48 AM 50.4°F10.2°C 48.7°F9.3°C 94% Calm Calm 6.9 mph11.1 kmh 30.28 in1025.4 mb 0.00 in0.0 mm 0.00 in0.0 mm 0.01 in0.3 mm
02:58 AM 50.2°F10.1°C 48.6°F9.2°C 94% Calm Calm -- 30.28 in1025.4 mb 0.00 in0.0 mm 0.00 in0.0 mm 0.01 in0.3 mm
03:08 AM 50.0°F10.0°C 48.4°F9.1°C 94% Calm Calm -- 30.28 in1025.4 mb 0.00 in0.0 mm 0.00 in0.0 mm 0.01 in0.3 mm
03:18 AM 49.8°F9.9°C 48.2°F9.0°C 94% Calm Calm -- 30.28 in1025.4 mb 0.00 in0.0 mm 0.00 in0.0 mm 0.01 in0.3 mm
03:28 AM 49.3°F9.6°C 47.7°F8.7°C 94% Calm Calm -- 30.27 in1025.1 mb 0.00 in0.0 mm 0.00 in0.0 mm 0.01 in0.3 mm
03:38 AM 48.6°F9.2°C 46.6°F8.1°C 93% Calm Calm -- 30.27 in1025.1 mb 0.00 in0.0 mm 0.00 in0.0 mm 0.01 in0.3 mm
03:48 AM 47.7°F8.7°C 45.7°F7.6°C 93% Calm Calm -- 30.27 in1025.1 mb 0.00 in0.0 mm 0.00 in0.0 mm 0.01 in0.3 mm
03:58 AM 47.1°F8.4°C 45.1°F7.3°C 93% Calm Calm 6.9 mph11.1 kmh 30.27 in1025.1 mb 0.00 in0.0 mm 0.00 in0.0 mm 0.01 in0.3 mm
04:08 AM 46.8°F8.2°C 44.6°F7.0°C 92% Calm Calm -- 30.27 in1025.1 mb 0.00 in0.0 mm 0.00 in0.0 mm 0.01 in0.3 mm
04:18 AM 46.6°F8.1°C 44.4°F6.9°C 92% Calm Calm -- 30.27 in1025.1 mb 0.00 in0.0 mm 0.00 in0.0 mm 0.01 in0.3 mm
04:28 AM 46.2°F7.9°C 43.7°F6.5°C 91% Calm Calm -- 30.27 in1025.1 mb 0.00 in0.0 mm 0.00 in0.0 mm 0.01 in0.3 mm
04:38 AM 46.0°F7.8°C 43.3°F6.3°C 90% Calm Calm -- 30.27 in1025.1 mb 0.00 in0.0 mm 0.00 in0.0 mm 0.01 in0.3 mm
04:49 AM 45.7°F7.6°C 43.0°F6.1°C 90% Calm Calm -- 30.27 in1025.1 mb 0.00 in0.0 mm 0.00 in0.0 mm 0.01 in0.3 mm
04:59 AM 44.4°F6.9°C 41.7°F5.4°C 90% Calm Calm -- 30.28 in1025.4 mb 0.00 in0.0 mm 0.00 in0.0 mm 0.01 in0.3 mm
05:09 AM 43.9°F6.6°C 41.4°F5.2°C 91% Calm Calm -- 30.28 in1025.4 mb 0.00 in0.0 mm 0.00 in0.0 mm 0.01 in0.3 mm
05:19 AM 44.1°F6.7°C 41.9°F5.5°C 92% Calm Calm -- 30.28 in1025.4 mb 0.00 in0.0 mm 0.00 in0.0 mm 0.01 in0.3 mm
05:29 AM 44.1°F6.7°C 41.5°F5.3°C 91% Calm Calm -- 30.28 in1025.4 mb 0.00 in0.0 mm 0.00 in0.0 mm 0.01 in0.3 mm
05:39 AM 43.3°F6.3°C 40.8°F4.9°C 91% Calm Calm -- 30.28 in1025.4 mb 0.00 in0.0 mm 0.00 in0.0 mm 0.01 in0.3 mm
05:49 AM 42.8°F6.0°C 40.3°F4.6°C 91% Calm Calm -- 30.28 in1025.4 mb 0.00 in0.0 mm 0.00 in0.0 mm 0.01 in0.3 mm
05:59 AM 42.1°F5.6°C 39.6°F4.2°C 91% Calm Calm -- 30.27 in1025.1 mb 0.00 in0.0 mm 0.00 in0.0 mm 0.01 in0.3 mm
06:09 AM 41.2°F5.1°C 38.8°F3.8°C 91% Calm Calm -- 30.27 in1025.1 mb 0.00 in0.0 mm 0.00 in0.0 mm 0.01 in0.3 mm
06:20 AM 40.5°F4.7°C 38.1°F3.4°C 91% Calm Calm -- 30.27 in1025.1 mb 0.00 in0.0 mm 0.00 in0.0 mm 0.01 in0.3 mm
06:30 AM 39.6°F4.2°C 37.2°F2.9°C 91% Calm Calm -- 30.28 in1025.4 mb 0.00 in0.0 mm 0.00 in0.0 mm 0.01 in0.3 mm
06:40 AM 39.0°F3.9°C 36.9°F2.7°C 92% Calm Calm -- 30.28 in1025.4 mb 0.00 in0.0 mm 0.00 in0.0 mm 0.01 in0.3 mm
06:50 AM 39.0°F3.9°C 37.2°F2.9°C 93% Calm Calm -- 30.28 in1025.4 mb 0.00 in0.0 mm 0.00 in0.0 mm 0.01 in0.3 mm
07:00 AM 38.7°F3.7°C 36.5°F2.5°C 92% Calm Calm -- 30.28 in1025.4 mb 0.00 in0.0 mm 0.00 in0.0 mm 0.01 in0.3 mm
07:10 AM 38.5°F3.6°C 36.7°F2.6°C 93% Calm Calm -- 30.28 in1025.4 mb 0.00 in0.0 mm 0.00 in0.0 mm 0.01 in0.3 mm
07:20 AM 38.1°F3.4°C 36.3°F2.4°C 93% Calm Calm -- 30.29 in1025.7 mb 0.00 in0.0 mm 0.00 in0.0 mm 0.01 in0.3 mm
07:30 AM 37.8°F3.2°C 36.0°F2.2°C 93% Calm Calm -- 30.29 in1025.7 mb 0.00 in0.0 mm 0.00 in0.0 mm 0.01 in0.3 mm
07:40 AM 37.2°F2.9°C 35.4°F1.9°C 93% Calm Calm -- 30.29 in1025.7 mb 0.00 in0.0 mm 0.00 in0.0 mm 0.01 in0.3 mm
07:50 AM 37.2°F2.9°C 35.4°F1.9°C 93% Calm Calm -- 30.31 in1026.4 mb 0.01 in0.3 mm 0.06 in1.5 mm 0.02 in0.5 mm
08:01 AM 37.2°F2.9°C 35.4°F1.9°C 93% Calm Calm -- 30.31 in1026.4 mb 0.01 in0.3 mm 0.00 in0.0 mm 0.02 in0.5 mm
08:11 AM 37.8°F3.2°C 36.1°F2.3°C 94% Calm Calm -- 30.31 in1026.4 mb 0.01 in0.3 mm 0.00 in0.0 mm 0.02 in0.5 mm
08:21 AM 39.4°F4.1°C 37.8°F3.2°C 94% Calm Calm -- 30.31 in1026.4 mb 0.01 in0.3 mm 0.00 in0.0 mm 0.02 in0.5 mm
08:31 AM 41.2°F5.1°C 39.9°F4.4°C 95% Calm Calm -- 30.31 in1026.4 mb 0.01 in0.3 mm 0.00 in0.0 mm 0.02 in0.5 mm
08:41 AM 42.1°F5.6°C 40.3°F4.6°C 93% Calm Calm -- 30.31 in1026.4 mb 0.01 in0.3 mm 0.00 in0.0 mm 0.02 in0.5 mm
08:51 AM 43.0°F6.1°C 41.4°F5.2°C 94% Calm Calm -- 30.32 in1026.8 mb 0.00 in0.0 mm 0.00 in0.0 mm 0.02 in0.5 mm
09:01 AM 44.1°F6.7°C 42.1°F5.6°C 93% Calm Calm -- 30.33 in1027.1 mb 0.00 in0.0 mm 0.00 in0.0 mm 0.02 in0.5 mm
09:11 AM 44.4°F6.9°C 42.4°F5.8°C 93% 2.0 mph NW3.2 kmh NW 2.9 mph4.7 kmh 30.33 in1027.1 mb 0.00 in0.0 mm 0.00 in0.0 mm 0.02 in0.5 mm
09:21 AM 45.3°F7.4°C 43.2°F6.2°C 92% 2.0 mph NW3.2 kmh NW 2.9 mph4.7 kmh 30.34 in1027.4 mb 0.00 in0.0 mm 0.00 in0.0 mm 0.02 in0.5 mm
09:31 AM 46.6°F8.1°C 43.9°F6.6°C 90% 2.0 mph NW3.2 kmh NW 2.9 mph4.7 kmh 30.34 in1027.4 mb 0.00 in0.0 mm 0.00 in0.0 mm 0.02 in0.5 mm
09:41 AM 47.5°F8.6°C 43.9°F6.6°C 87% 2.9 mph NNW4.7 kmh NNW 4.9 mph7.9 kmh 30.34 in1027.4 mb 0.00 in0.0 mm 0.00 in0.0 mm 0.02 in0.5 mm
09:51 AM 48.4°F9.1°C 43.7°F6.5°C 84% 2.0 mph NE3.2 kmh NE 6.9 mph11.1 kmh 30.34 in1027.4 mb 0.00 in0.0 mm 0.00 in0.0 mm 0.02 in0.5 mm
10:01 AM 48.7°F9.3°C 43.2°F6.2°C 81% 2.9 mph NE4.7 kmh NE 6.9 mph11.1 kmh 30.34 in1027.4 mb 0.00 in0.0 mm 0.00 in0.0 mm 0.02 in0.5 mm
10:11 AM 49.3°F9.6°C 43.0°F6.1°C 79% 4.0 mph NE6.4 kmh NE 6.0 mph9.7 kmh 30.34 in1027.4 mb 0.00 in0.0 mm 0.00 in0.0 mm 0.02 in0.5 mm
10:21 AM 50.2°F10.1°C 42.6°F5.9°C 75% 4.0 mph N6.4 kmh N 10.1 mph16.3 kmh 30.35 in1027.8 mb 0.00 in0.0 mm 0.00 in0.0 mm 0.02 in0.5 mm
10:31 AM 51.1°F10.6°C 43.5°F6.4°C 75% 4.0 mph N6.4 kmh N 8.9 mph14.3 kmh 30.36 in1028.1 mb 0.00 in0.0 mm 0.00 in0.0 mm 0.02 in0.5 mm
10:41 AM 51.4°F10.8°C 43.2°F6.2°C 73% 4.0 mph N6.4 kmh N 10.1 mph16.3 kmh 30.35 in1027.8 mb 0.00 in0.0 mm 0.00 in0.0 mm 0.02 in0.5 mm
10:51 AM 52.0°F11.1°C 43.5°F6.4°C 73% 6.9 mph NNW11.1 kmh NNW 12.1 mph19.5 kmh 30.35 in1027.8 mb 0.00 in0.0 mm 0.00 in0.0 mm 0.02 in0.5 mm
11:01 AM 52.3°F11.3°C 43.5°F6.4°C 72% 4.9 mph NNW7.9 kmh NNW 10.1 mph16.3 kmh 30.35 in1027.8 mb 0.00 in0.0 mm 0.00 in0.0 mm 0.02 in0.5 mm
11:11 AM 52.7°F11.5°C 43.9°F6.6°C 72% 4.0 mph NNW6.4 kmh NNW 8.1 mph13.0 kmh 30.35 in1027.8 mb 0.00 in0.0 mm 0.00 in0.0 mm 0.02 in0.5 mm
11:21 AM 53.2°F11.8°C 43.7°F6.5°C 70% 4.0 mph NNE6.4 kmh NNE 8.9 mph14.3 kmh 30.35 in1027.8 mb 0.00 in0.0 mm 0.00 in0.0 mm 0.02 in0.5 mm
11:31 AM 54.0°F12.2°C 43.7°F6.5°C 68% 4.0 mph N6.4 kmh N 10.1 mph16.3 kmh 30.35 in1027.8 mb 0.00 in0.0 mm 0.00 in0.0 mm 0.02 in0.5 mm
11:42 AM 54.7°F12.6°C 44.8°F7.1°C 69% 4.9 mph N7.9 kmh N 15.0 mph24.1 kmh 30.35 in1027.8 mb 0.00 in0.0 mm 0.00 in0.0 mm 0.02 in0.5 mm
11:52 AM 54.9°F12.7°C 44.1°F6.7°C 67% 4.9 mph NNE7.9 kmh NNE 12.1 mph19.5 kmh 30.35 in1027.8 mb 0.00 in0.0 mm 0.00 in0.0 mm 0.02 in0.5 mm
12:02 PM 55.0°F12.8°C 39.2°F4.0°C 55% 6.9 mph NNW11.1 kmh NNW 15.0 mph24.1 kmh 30.35 in1027.8 mb 0.00 in0.0 mm 0.00 in0.0 mm 0.02 in0.5 mm
12:12 PM 55.2°F12.9°C 39.4°F4.1°C 55% 10.1 mph N16.3 kmh N 16.1 mph25.9 kmh 30.34 in1027.4 mb 0.00 in0.0 mm 0.00 in0.0 mm 0.02 in0.5 mm
12:22 PM 55.9°F13.3°C 40.5°F4.7°C 56% 8.1 mph NW13.0 kmh NW 14.1 mph22.7 kmh 30.34 in1027.4 mb 0.00 in0.0 mm 0.00 in0.0 mm 0.02 in0.5 mm
12:32 PM 56.1°F13.4°C 39.2°F4.0°C 53% 8.1 mph N13.0 kmh N 16.1 mph25.9 kmh 30.34 in1027.4 mb 0.00 in0.0 mm 0.00 in0.0 mm 0.02 in0.5 mm
12:42 PM 55.9°F13.3°C 38.5°F3.6°C 52% 10.1 mph NNW16.3 kmh NNW 17.0 mph27.4 kmh 30.34 in1027.4 mb 0.00 in0.0 mm 0.00 in0.0 mm 0.02 in0.5 mm
12:52 PM 55.9°F13.3°C 39.6°F4.2°C 54% 8.9 mph N14.3 kmh N 13.0 mph20.9 kmh 30.33 in1027.1 mb 0.00 in0.0 mm 0.00 in0.0 mm 0.02 in0.5 mm
01:02 PM 55.8°F13.2°C 39.4°F4.1°C 54% 11.0 mph NNE17.7 kmh NNE 17.0 mph27.4 kmh 30.33 in1027.1 mb 0.00 in0.0 mm 0.00 in0.0 mm 0.02 in0.5 mm
01:12 PM 55.9°F13.3°C 39.0°F3.9°C 53% 8.9 mph NW14.3 kmh NW 16.1 mph25.9 kmh 30.33 in1027.1 mb 0.00 in0.0 mm 0.00 in0.0 mm 0.02 in0.5 mm
01:22 PM 55.8°F13.2°C 39.4°F4.1°C 54% 10.1 mph N16.3 kmh N 17.9 mph28.8 kmh 30.33 in1027.1 mb 0.00 in0.0 mm 0.00 in0.0 mm 0.02 in0.5 mm
01:32 PM 55.8°F13.2°C 39.4°F4.1°C 54% 10.1 mph NW16.3 kmh NW 17.9 mph28.8 kmh 30.32 in1026.8 mb 0.00 in0.0 mm 0.00 in0.0 mm 0.02 in0.5 mm
01:42 PM 55.6°F13.1°C 39.2°F4.0°C 54% 8.9 mph NW14.3 kmh NW 17.9 mph28.8 kmh 30.32 in1026.8 mb 0.00 in0.0 mm 0.00 in0.0 mm 0.02 in0.5 mm
01:52 PM 55.8°F13.2°C 38.8°F3.8°C 53% 8.1 mph WNW13.0 kmh WNW 15.0 mph24.1 kmh 30.31 in1026.4 mb 0.00 in0.0 mm 0.00 in0.0 mm 0.02 in0.5 mm
02:02 PM 55.8°F13.2°C 38.5°F3.6°C 52% 8.1 mph 13.0 kmh 13.0 mph20.9 kmh 30.31 in1026.4 mb 0.00 in0.0 mm 0.00 in0.0 mm 0.02 in0.5 mm
02:12 PM 56.1°F13.4°C 38.7°F3.7°C 52% 6.0 mph NNW9.7 kmh NNW 14.1 mph22.7 kmh 30.31 in1026.4 mb 0.00 in0.0 mm 0.00 in0.0 mm 0.02 in0.5 mm
02:22 PM 56.1°F13.4°C 38.7°F3.7°C 52% 8.9 mph NW14.3 kmh NW 14.1 mph22.7 kmh 30.31 in1026.4 mb 0.00 in0.0 mm 0.00 in0.0 mm 0.02 in0.5 mm
02:32 PM 56.1°F13.4°C 38.3°F3.5°C 51% 6.9 mph NW11.1 kmh NW 14.1 mph22.7 kmh 30.31 in1026.4 mb 0.00 in0.0 mm 0.00 in0.0 mm 0.02 in0.5 mm
02:42 PM 56.5°F13.6°C 37.6°F3.1°C 49% 6.9 mph NW11.1 kmh NW 14.1 mph22.7 kmh 30.31 in1026.4 mb 0.00 in0.0 mm 0.00 in0.0 mm 0.02 in0.5 mm
02:52 PM 56.1°F13.4°C 36.7°F2.6°C 48% 6.0 mph N9.7 kmh N 14.1 mph22.7 kmh 30.30 in1026.1 mb 0.00 in0.0 mm 0.00 in0.0 mm 0.02 in0.5 mm
03:02 PM 56.1°F13.4°C 38.3°F3.5°C 51% 8.1 mph NW13.0 kmh NW 12.1 mph19.5 kmh 30.30 in1026.1 mb 0.00 in0.0 mm 0.00 in0.0 mm 0.02 in0.5 mm
03:12 PM 55.2°F12.9°C 37.4°F3.0°C 51% 6.9 mph NW11.1 kmh NW 13.0 mph20.9 kmh 30.30 in1026.1 mb 0.00 in0.0 mm 0.00 in0.0 mm 0.02 in0.5 mm
03:22 PM 54.9°F12.7°C 37.6°F3.1°C 52% 4.0 mph N6.4 kmh N 11.0 mph17.7 kmh 30.30 in1026.1 mb 0.00 in0.0 mm 0.00 in0.0 mm 0.02 in0.5 mm
03:32 PM 55.6°F13.1°C 39.2°F4.0°C 54% 4.9 mph N7.9 kmh N 15.0 mph24.1 kmh 30.30 in1026.1 mb 0.00 in0.0 mm 0.00 in0.0 mm 0.02 in0.5 mm
03:42 PM 55.2°F12.9°C 37.9°F3.3°C 52% 8.9 mph WNW14.3 kmh WNW 14.1 mph22.7 kmh 30.30 in1026.1 mb 0.00 in0.0 mm 0.00 in0.0 mm 0.02 in0.5 mm
03:52 PM 55.2°F12.9°C 37.9°F3.3°C 52% 6.9 mph NW11.1 kmh NW 13.0 mph20.9 kmh 30.30 in1026.1 mb 0.00 in0.0 mm 0.00 in0.0 mm 0.02 in0.5 mm
04:02 PM 54.7°F12.6°C 38.3°F3.5°C 54% 8.9 mph NW14.3 kmh NW 17.0 mph27.4 kmh 30.30 in1026.1 mb 0.00 in0.0 mm 0.00 in0.0 mm 0.02 in0.5 mm
04:12 PM 54.5°F12.5°C 38.7°F3.7°C 55% 8.1 mph NW13.0 kmh NW 14.1 mph22.7 kmh 30.29 in1025.7 mb 0.00 in0.0 mm 0.00 in0.0 mm 0.02 in0.5 mm
04:22 PM 54.3°F12.4°C 39.0°F3.9°C 56% 6.9 mph NW11.1 kmh NW 13.0 mph20.9 kmh 30.29 in1025.7 mb 0.00 in0.0 mm 0.00 in0.0 mm 0.02 in0.5 mm
04:32 PM 54.0°F12.2°C 39.0°F3.9°C 57% 8.1 mph NNW13.0 kmh NNW 14.1 mph22.7 kmh 30.29 in1025.7 mb 0.00 in0.0 mm 0.00 in0.0 mm 0.02 in0.5 mm
04:42 PM 53.6°F12.0°C 40.1°F4.5°C 60% 6.9 mph N11.1 kmh N 11.0 mph17.7 kmh 30.29 in1025.7 mb 0.00 in0.0 mm 0.00 in0.0 mm 0.02 in0.5 mm
04:52 PM 53.6°F12.0°C 40.5°F4.7°C 61% 6.0 mph NW9.7 kmh NW 13.0 mph20.9 kmh 30.29 in1025.7 mb 0.00 in0.0 mm 0.00 in0.0 mm 0.02 in0.5 mm
05:02 PM 53.1°F11.7°C 39.9°F4.4°C 61% 6.0 mph NNW9.7 kmh NNW 12.1 mph19.5 kmh 30.29 in1025.7 mb 0.00 in0.0 mm 0.00 in0.0 mm 0.02 in0.5 mm
05:12 PM 52.3°F11.3°C 40.1°F4.5°C 63% 4.9 mph NW7.9 kmh NW 11.0 mph17.7 kmh 30.29 in1025.7 mb 0.00 in0.0 mm 0.00 in0.0 mm 0.02 in0.5 mm
05:22 PM 51.6°F10.9°C 40.3°F4.6°C 65% 0.9 mph NNW1.4 kmh NNW 8.1 mph13.0 kmh 30.29 in1025.7 mb 0.00 in0.0 mm 0.00 in0.0 mm 0.02 in0.5 mm
05:32 PM 51.1°F10.6°C 41.2°F5.1°C 69% 6.0 mph NW9.7 kmh NW 13.0 mph20.9 kmh 30.30 in1026.1 mb 0.00 in0.0 mm 0.00 in0.0 mm 0.02 in0.5 mm
05:42 PM 50.5°F10.3°C 41.5°F5.3°C 71% 4.0 mph NW6.4 kmh NW 8.9 mph14.3 kmh 30.30 in1026.1 mb 0.00 in0.0 mm 0.00 in0.0 mm 0.02 in0.5 mm
05:52 PM 50.2°F10.1°C 41.5°F5.3°C 72% 2.9 mph NW4.7 kmh NW 4.9 mph7.9 kmh 30.30 in1026.1 mb 0.00 in0.0 mm 0.00 in0.0 mm 0.02 in0.5 mm
06:02 PM 49.5°F9.7°C 41.2°F5.1°C 73% 2.9 mph N4.7 kmh N 6.0 mph9.7 kmh 30.30 in1026.1 mb 0.00 in0.0 mm 0.00 in0.0 mm 0.02 in0.5 mm
06:12 PM 48.9°F9.4°C 41.0°F5.0°C 74% 2.9 mph NW4.7 kmh NW 8.1 mph13.0 kmh 30.30 in1026.1 mb 0.00 in0.0 mm 0.00 in0.0 mm 0.02 in0.5 mm
06:22 PM 47.7°F8.7°C 40.5°F4.7°C 76% 0.9 mph NW1.4 kmh NW 2.9 mph4.7 kmh 30.30 in1026.1 mb 0.00 in0.0 mm 0.00 in0.0 mm 0.02 in0.5 mm
06:32 PM 46.0°F7.8°C 39.9°F4.4°C 79% 2.0 mph NW3.2 kmh NW 4.9 mph7.9 kmh 30.31 in1026.4 mb 0.00 in0.0 mm 0.00 in0.0 mm 0.02 in0.5 mm
06:42 PM 45.3°F7.4°C 40.1°F4.5°C 82% 0.9 mph WNW1.4 kmh WNW 4.0 mph6.4 kmh 30.30 in1026.1 mb 0.00 in0.0 mm 0.00 in0.0 mm 0.02 in0.5 mm
06:52 PM 44.8°F7.1°C 39.9°F4.4°C 83% Calm Calm -- 30.31 in1026.4 mb 0.00 in0.0 mm 0.00 in0.0 mm 0.02 in0.5 mm
07:02 PM 44.2°F6.8°C 39.7°F4.3°C 84% Calm Calm -- 30.31 in1026.4 mb 0.00 in0.0 mm 0.00 in0.0 mm 0.02 in0.5 mm
07:12 PM 43.9°F6.6°C 39.7°F4.3°C 85% Calm Calm -- 30.31 in1026.4 mb 0.00 in0.0 mm 0.00 in0.0 mm 0.02 in0.5 mm
07:22 PM 43.7°F6.5°C 40.1°F4.5°C 87% Calm Calm -- 30.32 in1026.8 mb 0.00 in0.0 mm 0.00 in0.0 mm 0.02 in0.5 mm
07:33 PM 43.5°F6.4°C 39.9°F4.4°C 87% Calm Calm -- 30.32 in1026.8 mb 0.00 in0.0 mm 0.00 in0.0 mm 0.02 in0.5 mm
07:43 PM 42.8°F6.0°C 39.2°F4.0°C 87% Calm Calm -- 30.32 in1026.8 mb 0.00 in0.0 mm 0.00 in0.0 mm 0.02 in0.5 mm
07:53 PM 42.6°F5.9°C 39.4°F4.1°C 88% Calm Calm -- 30.32 in1026.8 mb 0.00 in0.0 mm 0.00 in0.0 mm 0.02 in0.5 mm
08:03 PM 42.3°F5.7°C 39.0°F3.9°C 88% Calm Calm -- 30.32 in1026.8 mb 0.00 in0.0 mm 0.00 in0.0 mm 0.02 in0.5 mm
08:13 PM 42.1°F5.6°C 39.0°F3.9°C 89% Calm Calm -- 30.32 in1026.8 mb 0.00 in0.0 mm 0.00 in0.0 mm 0.02 in0.5 mm
08:23 PM 41.7°F5.4°C 38.7°F3.7°C 89% Calm Calm -- 30.32 in1026.8 mb 0.00 in0.0 mm 0.00 in0.0 mm 0.02 in0.5 mm
08:33 PM 41.2°F5.1°C 38.5°F3.6°C 90% Calm Calm -- 30.32 in1026.8 mb 0.00 in0.0 mm 0.00 in0.0 mm 0.02 in0.5 mm
08:43 PM 40.8°F4.9°C 38.1°F3.4°C 90% Calm Calm -- 30.32 in1026.8 mb 0.00 in0.0 mm 0.00 in0.0 mm 0.02 in0.5 mm
08:53 PM 40.3°F4.6°C 37.6°F3.1°C 90% Calm Calm -- 30.32 in1026.8 mb 0.00 in0.0 mm 0.00 in0.0 mm 0.02 in0.5 mm
09:04 PM 39.9°F4.4°C 37.2°F2.9°C 90% Calm Calm -- 30.32 in1026.8 mb 0.00 in0.0 mm 0.00 in0.0 mm 0.02 in0.5 mm
09:14 PM 39.6°F4.2°C 37.2°F2.9°C 91% Calm Calm -- 30.32 in1026.8 mb 0.00 in0.0 mm 0.00 in0.0 mm 0.02 in0.5 mm
09:24 PM 39.7°F4.3°C 37.4°F3.0°C 91% Calm Calm -- 30.32 in1026.8 mb 0.00 in0.0 mm 0.00 in0.0 mm 0.02 in0.5 mm
09:34 PM 39.6°F4.2°C 37.4°F3.0°C 92% Calm Calm -- 30.33 in1027.1 mb 0.00 in0.0 mm 0.00 in0.0 mm 0.02 in0.5 mm
09:44 PM 39.6°F4.2°C 37.4°F3.0°C 92% Calm Calm -- 30.32 in1026.8 mb 0.00 in0.0 mm 0.00 in0.0 mm 0.02 in0.5 mm
09:54 PM 39.4°F4.1°C 37.2°F2.9°C 92% Calm Calm -- 30.32 in1026.8 mb 0.00 in0.0 mm 0.00 in0.0 mm 0.02 in0.5 mm
10:04 PM 39.4°F4.1°C 37.2°F2.9°C 92% Calm Calm -- 30.33 in1027.1 mb 0.00 in0.0 mm 0.00 in0.0 mm 0.02 in0.5 mm
10:15 PM 39.0°F3.9°C 36.9°F2.7°C 92% Calm Calm -- 30.33 in1027.1 mb 0.00 in0.0 mm 0.00 in0.0 mm 0.02 in0.5 mm
10:25 PM 38.7°F3.7°C 36.5°F2.5°C 92% Calm Calm -- 30.33 in1027.1 mb 0.00 in0.0 mm 0.00 in0.0 mm 0.02 in0.5 mm
10:35 PM 38.5°F3.6°C 36.3°F2.4°C 92% Calm Calm -- 30.33 in1027.1 mb 0.00 in0.0 mm 0.00 in0.0 mm 0.02 in0.5 mm
10:45 PM 37.8°F3.2°C 35.6°F2.0°C 92% Calm Calm -- 30.33 in1027.1 mb 0.00 in0.0 mm 0.00 in0.0 mm 0.02 in0.5 mm
10:55 PM 37.8°F3.2°C 36.0°F2.2°C 93% Calm Calm -- 30.33 in1027.1 mb 0.00 in0.0 mm 0.00 in0.0 mm 0.02 in0.5 mm
11:05 PM 37.8°F3.2°C 36.0°F2.2°C 93% Calm Calm -- 30.33 in1027.1 mb 0.00 in0.0 mm 0.00 in0.0 mm 0.02 in0.5 mm
11:15 PM 37.6°F3.1°C 35.4°F1.9°C 92% Calm Calm -- 30.32 in1026.8 mb 0.00 in0.0 mm 0.00 in0.0 mm 0.02 in0.5 mm
11:25 PM 37.0°F2.8°C 35.2°F1.8°C 93% Calm Calm -- 30.32 in1026.8 mb 0.00 in0.0 mm 0.00 in0.0 mm 0.02 in0.5 mm
11:35 PM 36.9°F2.7°C 35.1°F1.7°C 93% Calm Calm -- 30.32 in1026.8 mb 0.00 in0.0 mm 0.00 in0.0 mm 0.02 in0.5 mm
11:45 PM 37.0°F2.8°C 35.2°F1.8°C 93% Calm Calm -- 30.32 in1026.8 mb 0.00 in0.0 mm 0.00 in0.0 mm 0.02 in0.5 mm
11:55 PM 36.9°F2.7°C 35.1°F1.7°C 93% Calm Calm -- 30.32 in1026.8 mb 0.00 in0.0 mm 0.00 in0.0 mm 0.02 in0.5 mm